createdAt,value
2022-10-23T00:00:38.914Z,10.76
2022-10-23T00:03:46.252Z,10.68
2022-10-23T00:06:54.396Z,10.70
2022-10-23T00:10:02.466Z,10.65
2022-10-23T00:13:09.811Z,10.65
2022-10-23T00:16:17.933Z,10.63
2022-10-23T00:19:25.683Z,10.63
2022-10-23T00:22:35.077Z,10.62
2022-10-23T00:25:43.098Z,10.58
2022-10-23T00:28:51.258Z,10.62
2022-10-23T00:31:59.830Z,10.60
2022-10-23T00:35:08.319Z,10.68
2022-10-23T00:38:16.707Z,10.74
2022-10-23T00:41:24.162Z,10.80
2022-10-23T00:44:32.090Z,10.84
2022-10-23T00:47:39.763Z,10.89
2022-10-23T00:50:47.400Z,10.95
2022-10-23T00:54:01.287Z,10.99
2022-10-23T00:57:00.304Z,11.07
2022-10-23T01:00:07.803Z,11.14
2022-10-23T01:03:15.472Z,11.20
2022-10-23T01:06:23.492Z,11.24
2022-10-23T01:09:31.187Z,11.28
2022-10-23T01:12:38.895Z,11.32
2022-10-23T01:15:47.075Z,11.31
2022-10-23T01:18:54.431Z,11.32
2022-10-23T01:22:02.476Z,11.28
2022-10-23T01:25:10.549Z,11.21
2022-10-23T01:28:17.769Z,11.20
2022-10-23T01:31:25.871Z,11.19
2022-10-23T01:34:33.540Z,11.17
2022-10-23T01:37:41.252Z,11.14
2022-10-23T01:40:49.295Z,11.11
2022-10-23T01:43:56.856Z,11.11
2022-10-23T01:47:04.515Z,11.07
2022-10-23T01:50:12.687Z,11.03
2022-10-23T01:53:20.266Z,11.03
2022-10-23T01:56:27.916Z,11.03
2022-10-23T01:59:35.585Z,11.07
2022-10-23T02:02:43.699Z,11.02
2022-10-23T02:05:51.435Z,11.03
2022-10-23T02:08:59.129Z,11.01
2022-10-23T02:12:06.862Z,11.03
2022-10-23T02:15:14.407Z,10.99
2022-10-23T02:18:22.080Z,10.95
2022-10-23T02:21:29.644Z,10.92
2022-10-23T02:24:37.373Z,10.83
2022-10-23T02:27:45.280Z,10.83
2022-10-23T02:30:53.003Z,10.86
2022-10-23T02:34:00.692Z,10.83
2022-10-23T02:37:08.591Z,10.88
2022-10-23T02:40:16.219Z,10.84
2022-10-23T02:43:23.568Z,10.81
2022-10-23T02:46:31.411Z,10.81
2022-10-23T02:49:38.676Z,10.78
2022-10-23T02:52:46.549Z,10.74
2022-10-23T02:55:54.666Z,10.77
2022-10-23T02:59:02.041Z,10.74
2022-10-23T03:02:10.158Z,10.68
2022-10-23T03:05:18.411Z,10.63
2022-10-23T03:08:25.740Z,10.65
2022-10-23T03:11:33.865Z,10.65
2022-10-23T03:14:41.624Z,10.65
2022-10-23T03:17:49.353Z,10.66
2022-10-23T03:20:57.235Z,10.70
2022-10-23T03:24:05.035Z,10.71
2022-10-23T03:27:12.821Z,10.74
2022-10-23T03:30:20.651Z,10.74
2022-10-23T03:33:28.508Z,10.74
2022-10-23T03:36:36.579Z,10.74
2022-10-23T03:39:43.960Z,10.76
2022-10-23T03:42:52.098Z,10.74
2022-10-23T03:45:59.862Z,10.70
2022-10-23T03:49:07.178Z,10.66
2022-10-23T03:52:15.124Z,10.65
2022-10-23T03:55:22.875Z,10.66
2022-10-23T03:58:30.431Z,10.66
2022-10-23T04:01:38.662Z,10.63
2022-10-23T04:04:46.345Z,10.63
2022-10-23T04:07:54.032Z,10.66
2022-10-23T04:11:02.427Z,10.66
2022-10-23T04:14:09.693Z,10.66
2022-10-23T04:17:17.921Z,10.63
2022-10-23T04:20:25.502Z,10.63
2022-10-23T04:23:32.728Z,10.63
2022-10-23T04:26:40.931Z,10.65
2022-10-23T04:29:48.921Z,10.73
2022-10-23T04:32:56.120Z,10.76
2022-10-23T04:36:04.227Z,10.83
2022-10-23T04:39:12.326Z,10.88
2022-10-23T04:42:19.627Z,10.89
2022-10-23T04:45:27.728Z,10.89
2022-10-23T04:48:35.320Z,10.91
2022-10-23T04:51:42.914Z,10.88
2022-10-23T04:54:51.011Z,10.89
2022-10-23T04:57:58.589Z,10.88
2022-10-23T05:01:06.104Z,10.86
2022-10-23T05:04:14.038Z,10.84
2022-10-23T05:10:29.148Z,10.88
2022-10-23T05:13:36.991Z,10.91
2022-10-23T05:16:44.613Z,10.91
2022-10-23T05:19:52.345Z,10.89
2022-10-23T05:23:00.176Z,10.89
2022-10-23T05:26:07.673Z,10.92
2022-10-23T05:29:15.322Z,10.96
2022-10-23T05:32:22.879Z,10.96
2022-10-23T05:35:30.727Z,10.98
2022-10-23T05:38:38.519Z,11.06
2022-10-23T05:41:46.320Z,11.02
2022-10-23T05:44:54.156Z,10.96
2022-10-23T05:48:11.103Z,10.94
2022-10-23T05:51:06.761Z,10.86
2022-10-23T05:54:14.645Z,10.84
2022-10-23T05:57:22.075Z,10.81
2022-10-23T06:00:30.167Z,10.81
2022-10-23T06:03:37.893Z,10.81
2022-10-23T06:06:45.136Z,10.83
2022-10-23T06:09:53.145Z,10.84
2022-10-23T06:13:00.586Z,10.91
2022-10-23T06:16:09.864Z,10.91
2022-10-23T06:19:17.780Z,10.89
2022-10-23T06:22:25.222Z,10.92
2022-10-23T06:25:33.326Z,10.91
2022-10-23T06:28:41.501Z,10.91
2022-10-23T06:31:49.189Z,10.91
2022-10-23T06:34:57.132Z,10.92
2022-10-23T06:38:04.893Z,10.94
2022-10-23T06:41:12.682Z,10.95
2022-10-23T06:44:21.028Z,10.99
2022-10-23T06:47:28.556Z,11.07
2022-10-23T06:50:36.386Z,11.14
2022-10-23T06:53:44.241Z,11.24
2022-10-23T06:56:51.414Z,11.28
2022-10-23T06:59:59.487Z,11.31
2022-10-23T07:03:06.838Z,11.36
2022-10-23T07:06:14.709Z,11.39
2022-10-23T07:09:22.044Z,11.43
2022-10-23T07:12:29.544Z,11.47
2022-10-23T07:15:37.180Z,11.54
2022-10-23T07:18:44.842Z,11.61
2022-10-23T07:21:52.600Z,11.67
2022-10-23T07:25:00.303Z,11.71
2022-10-23T07:28:08.193Z,11.75
2022-10-23T07:31:15.834Z,11.82
2022-10-23T07:34:23.204Z,11.86
2022-10-23T07:37:31.240Z,11.94
2022-10-23T07:40:38.849Z,12.02
2022-10-23T07:43:46.379Z,12.09
2022-10-23T07:46:53.977Z,12.19
2022-10-23T07:50:02.328Z,12.26
2022-10-23T07:53:10.263Z,12.34
2022-10-23T07:56:18.220Z,12.45
2022-10-23T07:59:26.262Z,12.56
2022-10-23T08:02:34.375Z,12.64
2022-10-23T08:05:43.579Z,12.78
2022-10-23T08:08:52.396Z,12.88
2022-10-23T08:11:59.965Z,13.00
2022-10-23T08:15:08.998Z,13.12
2022-10-23T08:18:17.398Z,13.21
2022-10-23T08:21:25.017Z,13.27
2022-10-23T08:24:33.949Z,13.33
2022-10-23T08:27:43.108Z,13.40
2022-10-23T08:30:51.257Z,13.47
2022-10-23T08:34:00.220Z,13.51
2022-10-23T08:37:09.058Z,13.58
2022-10-23T08:40:16.764Z,13.62
2022-10-23T08:43:25.442Z,13.76
2022-10-23T08:46:33.760Z,13.77
2022-10-23T08:49:42.086Z,13.84
2022-10-23T08:52:51.121Z,13.95
2022-10-23T08:55:59.003Z,14.01
2022-10-23T08:59:07.143Z,14.10
2022-10-23T09:02:16.113Z,14.21
2022-10-23T09:05:23.871Z,14.32
2022-10-23T09:08:32.031Z,14.46
2022-10-23T09:11:39.963Z,14.56
2022-10-23T09:14:48.713Z,14.68
2022-10-23T09:17:56.893Z,14.83
2022-10-23T09:21:05.243Z,14.90
2022-10-23T09:24:13.214Z,14.99
2022-10-23T09:27:21.956Z,15.06
2022-10-23T09:30:30.260Z,15.12
2022-10-23T09:33:38.320Z,15.24
2022-10-23T09:36:46.708Z,15.36
2022-10-23T09:39:55.325Z,15.42
2022-10-23T09:43:03.160Z,15.49
2022-10-23T09:46:11.339Z,15.57
2022-10-23T09:49:19.694Z,15.63
2022-10-23T09:52:28.011Z,15.70
2022-10-23T09:55:36.304Z,15.75
2022-10-23T09:58:45.025Z,15.75
2022-10-23T10:01:53.051Z,15.75
2022-10-23T10:05:01.574Z,15.78
2022-10-23T10:08:10.342Z,15.82
2022-10-23T10:11:18.138Z,15.85
2022-10-23T10:14:26.793Z,15.89
2022-10-23T10:17:35.363Z,15.94
2022-10-23T10:20:43.350Z,16.01
2022-10-23T10:23:51.792Z,16.07
2022-10-23T10:26:59.846Z,16.15
2022-10-23T10:30:08.445Z,16.22
2022-10-23T10:33:16.912Z,16.31
2022-10-23T10:39:33.854Z,16.48
2022-10-23T10:42:41.964Z,16.56
2022-10-23T10:45:50.130Z,16.59
2022-10-23T10:48:58.383Z,16.59
2022-10-23T10:52:07.101Z,16.62
2022-10-23T10:55:16.492Z,16.68
2022-10-23T10:58:24.431Z,16.70
2022-10-23T11:01:32.670Z,16.81
2022-10-23T11:04:41.596Z,16.92
2022-10-23T11:07:50.436Z,17.07
2022-10-23T11:10:58.492Z,17.15
2022-10-23T11:14:06.949Z,17.28
2022-10-23T11:17:15.264Z,17.36
2022-10-23T11:20:23.871Z,17.46
2022-10-23T11:23:32.412Z,17.57
2022-10-23T11:26:40.103Z,17.64
2022-10-23T11:29:49.295Z,17.74
2022-10-23T11:32:58.005Z,17.81
2022-10-23T11:36:05.785Z,17.87
2022-10-23T11:39:13.896Z,17.95
2022-10-23T11:42:21.950Z,18.10
2022-10-23T11:45:29.242Z,18.29
2022-10-23T11:48:37.344Z,18.43
2022-10-23T11:51:45.031Z,18.54
2022-10-23T11:54:52.703Z,18.61
2022-10-23T11:58:00.593Z,18.70
2022-10-23T12:01:08.123Z,18.76
2022-10-23T12:04:15.784Z,18.79
2022-10-23T12:07:23.709Z,18.84
2022-10-23T12:10:31.425Z,18.87
2022-10-23T12:13:39.077Z,18.92
2022-10-23T12:16:46.979Z,18.92
2022-10-23T12:19:54.319Z,18.94
2022-10-23T12:23:01.941Z,18.91
2022-10-23T12:26:09.581Z,18.87
2022-10-23T12:29:17.806Z,18.87
2022-10-23T12:32:25.414Z,18.83
2022-10-23T12:35:33.136Z,18.83
2022-10-23T12:38:41.137Z,18.86
2022-10-23T12:41:48.476Z,18.86
2022-10-23T12:44:56.499Z,18.91
2022-10-23T12:48:04.575Z,18.87
2022-10-23T12:51:11.787Z,18.98
2022-10-23T12:54:19.784Z,19.05
2022-10-23T12:57:27.900Z,19.14
2022-10-23T13:00:35.323Z,19.13
2022-10-23T13:03:43.534Z,19.08
2022-10-23T13:06:51.647Z,19.01
2022-10-23T13:09:58.958Z,18.97
2022-10-23T13:13:06.900Z,18.94
2022-10-23T13:16:14.979Z,18.84
2022-10-23T13:19:22.231Z,18.74
2022-10-23T13:22:30.272Z,18.68
2022-10-23T13:25:37.892Z,18.64
2022-10-23T13:28:45.374Z,18.62
2022-10-23T13:31:53.282Z,18.59
2022-10-23T13:35:10.044Z,18.58
2022-10-23T13:38:05.966Z,18.54
2022-10-23T13:41:13.920Z,18.52
2022-10-23T13:44:21.997Z,18.49
2022-10-23T13:47:29.579Z,18.50
2022-10-23T13:50:37.342Z,18.47
2022-10-23T13:53:45.427Z,18.47
2022-10-23T13:56:53.201Z,18.43
2022-10-23T14:00:00.963Z,18.40
2022-10-23T14:03:08.644Z,18.34
2022-10-23T14:06:16.174Z,18.29
2022-10-23T14:09:24.036Z,18.22
2022-10-23T14:12:32.500Z,18.18
2022-10-23T14:15:40.362Z,18.10
2022-10-23T14:18:48.451Z,18.06
2022-10-23T14:21:56.510Z,18.02
2022-10-23T14:25:03.762Z,17.99
2022-10-23T14:28:11.760Z,17.95
2022-10-23T14:31:19.774Z,17.92
2022-10-23T14:34:27.046Z,17.89
2022-10-23T14:37:34.900Z,17.85
2022-10-23T14:40:42.729Z,17.81
2022-10-23T14:43:50.396Z,17.73
2022-10-23T14:46:58.524Z,17.66
2022-10-23T14:50:06.292Z,17.64
2022-10-23T14:53:14.001Z,17.62
2022-10-23T14:56:21.880Z,17.62
2022-10-23T14:59:30.014Z,17.57
2022-10-23T15:02:37.623Z,17.54
2022-10-23T15:05:45.415Z,17.51
2022-10-23T15:08:53.626Z,17.50
2022-10-23T15:12:01.076Z,17.46
2022-10-23T15:15:08.851Z,17.43
2022-10-23T15:18:17.039Z,17.38
2022-10-23T15:21:24.481Z,17.32
2022-10-23T15:24:32.791Z,17.29
2022-10-23T15:27:40.805Z,17.25
2022-10-23T15:30:47.980Z,17.20
2022-10-23T15:33:56.056Z,17.15
2022-10-23T15:37:04.174Z,17.11
2022-10-23T15:40:11.505Z,17.08
2022-10-23T15:43:19.566Z,17.06
2022-10-23T15:46:27.108Z,17.07
2022-10-23T15:49:34.969Z,17.04
2022-10-23T15:52:43.327Z,16.96
2022-10-23T15:55:51.069Z,16.89
2022-10-23T15:58:58.884Z,16.80
2022-10-23T16:02:07.057Z,16.71
2022-10-23T16:05:14.516Z,16.59
2022-10-23T16:08:22.135Z,16.53
2022-10-23T16:11:29.938Z,16.44
2022-10-23T16:14:38.295Z,16.38
2022-10-23T16:17:46.672Z,16.33
2022-10-23T16:20:54.009Z,16.30
2022-10-23T16:24:01.899Z,16.22
2022-10-23T16:27:09.697Z,16.15
2022-10-23T16:30:17.240Z,16.09
2022-10-23T16:33:24.979Z,16.04
2022-10-23T16:36:32.953Z,15.96
2022-10-23T16:39:40.671Z,15.89
2022-10-23T16:42:48.182Z,15.85
2022-10-23T16:45:55.703Z,15.79
2022-10-23T16:49:04.148Z,15.76
2022-10-23T16:52:11.967Z,15.74
2022-10-23T16:55:19.351Z,15.70
2022-10-23T16:58:27.809Z,15.68
2022-10-23T17:01:36.161Z,15.67
2022-10-23T17:04:43.624Z,15.64
2022-10-23T17:07:51.613Z,15.63
2022-10-23T17:10:59.345Z,15.63
2022-10-23T17:14:07.442Z,15.63
2022-10-23T17:17:15.574Z,15.64
2022-10-23T17:20:23.379Z,15.66
2022-10-23T17:23:31.035Z,15.63
2022-10-23T17:26:39.891Z,15.64
2022-10-23T17:29:47.945Z,15.60
2022-10-23T17:32:59.386Z,15.56
2022-10-23T17:35:58.608Z,15.54
2022-10-23T17:39:06.610Z,15.48
2022-10-23T17:42:14.424Z,15.42
2022-10-23T17:45:22.144Z,15.36
2022-10-23T17:48:30.802Z,15.28
2022-10-23T17:51:38.788Z,15.24
2022-10-23T17:54:46.765Z,15.19
2022-10-23T17:57:55.025Z,15.13
2022-10-23T18:01:02.621Z,15.08
2022-10-23T18:04:10.689Z,15.09
2022-10-23T18:07:19.068Z,15.08
2022-10-23T18:10:26.757Z,15.09
2022-10-23T18:13:35.370Z,15.08
2022-10-23T18:16:42.881Z,15.11
2022-10-23T18:19:50.461Z,15.08
2022-10-23T18:22:58.683Z,15.08
2022-10-23T18:26:06.875Z,15.08
2022-10-23T18:29:14.396Z,15.08
2022-10-23T18:32:22.617Z,15.09
2022-10-23T18:35:30.679Z,15.12
2022-10-23T18:38:38.786Z,15.12
2022-10-23T18:41:47.213Z,15.12
2022-10-23T18:44:55.159Z,15.13
2022-10-23T18:48:04.120Z,15.13
2022-10-23T18:51:14.903Z,15.13
2022-10-23T18:54:13.031Z,15.15
2022-10-23T18:57:20.451Z,15.13
2022-10-23T19:00:28.395Z,15.09
2022-10-23T19:03:36.441Z,15.05
2022-10-23T19:06:44.569Z,15.02
2022-10-23T19:09:52.038Z,14.95
2022-10-23T19:12:59.928Z,14.93
2022-10-23T19:16:07.349Z,14.90
2022-10-23T19:19:16.241Z,14.87
2022-10-23T19:22:24.651Z,14.86
2022-10-23T19:25:32.382Z,14.83
2022-10-23T19:28:40.479Z,14.75
2022-10-23T19:31:48.965Z,14.74
2022-10-23T19:34:56.514Z,14.68
2022-10-23T19:38:04.985Z,14.62
2022-10-23T19:41:13.466Z,14.56
2022-10-23T19:44:20.909Z,14.53
2022-10-23T19:47:28.786Z,14.50
2022-10-23T19:50:37.309Z,14.46
2022-10-23T19:53:45.566Z,14.44
2022-10-23T19:56:53.635Z,14.42
2022-10-23T20:00:01.311Z,14.42
2022-10-23T20:03:09.082Z,14.42
2022-10-23T20:06:17.332Z,14.38
2022-10-23T20:09:25.228Z,14.38
2022-10-23T20:12:33.145Z,14.38
2022-10-23T20:15:40.905Z,14.37
2022-10-23T20:18:48.714Z,14.37
2022-10-23T20:21:56.357Z,14.35
2022-10-23T20:25:04.280Z,14.32
2022-10-23T20:28:14.363Z,14.34
2022-10-23T20:31:23.164Z,14.29
2022-10-23T20:34:30.952Z,14.31
2022-10-23T20:37:38.702Z,14.29
2022-10-23T20:40:46.136Z,14.27
2022-10-23T20:43:54.585Z,14.28
2022-10-23T20:47:02.386Z,14.29
2022-10-23T20:50:10.006Z,14.31
2022-10-23T20:53:18.240Z,14.34
2022-10-23T20:56:26.361Z,14.34
2022-10-23T20:59:33.670Z,14.37
2022-10-23T21:02:42.716Z,14.39
2022-10-23T21:05:52.208Z,14.38
2022-10-23T21:08:59.705Z,14.39
2022-10-23T21:12:07.789Z,14.42
2022-10-23T21:15:15.703Z,14.42
2022-10-23T21:18:33.634Z,14.42
2022-10-23T21:21:28.467Z,14.44
2022-10-23T21:24:36.038Z,14.42
2022-10-23T21:27:43.798Z,14.38
2022-10-23T21:30:52.086Z,14.32
2022-10-23T21:33:59.804Z,14.27
2022-10-23T21:37:15.165Z,14.25
2022-10-23T21:40:11.528Z,14.17
2022-10-23T21:43:19.721Z,14.10
2022-10-23T21:46:27.625Z,14.04
2022-10-23T21:49:35.288Z,14.01
2022-10-23T21:52:43.715Z,14.01
2022-10-23T21:55:51.544Z,13.99
2022-10-23T21:58:59.266Z,13.99
2022-10-23T22:02:07.126Z,13.94
2022-10-23T22:05:14.945Z,13.94
2022-10-23T22:08:22.650Z,13.92
2022-10-23T22:11:30.422Z,13.87
2022-10-23T22:14:37.719Z,13.84
2022-10-23T22:17:46.023Z,13.79
2022-10-23T22:20:56.246Z,13.74
2022-10-23T22:23:55.173Z,13.70
2022-10-23T22:27:03.021Z,13.67
2022-10-23T22:30:10.629Z,13.63
2022-10-23T22:33:18.194Z,13.61
2022-10-23T22:36:26.329Z,13.56
2022-10-23T22:39:34.143Z,13.56
2022-10-23T22:42:41.658Z,13.55
2022-10-23T22:45:49.755Z,13.52
2022-10-23T22:48:57.264Z,13.47
2022-10-23T22:52:05.429Z,13.44
2022-10-23T22:55:13.489Z,13.41
2022-10-23T22:58:20.792Z,13.40
2022-10-23T23:01:28.747Z,13.40
2022-10-23T23:04:38.144Z,13.40
2022-10-23T23:07:46.306Z,13.43
2022-10-23T23:10:54.719Z,13.44
2022-10-23T23:14:02.474Z,13.47
2022-10-23T23:17:10.192Z,13.43
2022-10-23T23:20:18.581Z,13.43
2022-10-23T23:23:26.328Z,13.40
2022-10-23T23:26:33.899Z,13.36
2022-10-23T23:29:42.053Z,13.32
2022-10-23T23:32:49.752Z,13.25
2022-10-23T23:35:57.498Z,13.24
2022-10-23T23:42:12.733Z,13.22
2022-10-23T23:45:20.535Z,13.20
2022-10-23T23:48:28.187Z,13.17
2022-10-23T23:51:36.248Z,13.12
2022-10-23T23:54:43.935Z,13.09
2022-10-23T23:57:51.726Z,13.09
